Time;durP1;ratioP1;P1;durP2;ratioP2;P2;SDS_P1;SDS_P2;PMS_P1;PMS_P2;Temp;Humidity;BMP_temperature;BMP_pressure;BME280_temperature;BME280_humidity;BME280_pressure;Samples;Min_cycle;Max_cycle;Signal;HPM_P1;HPM_P2
2023/05/08 00:01:16;;;;;;;;;;;18.20;59.00;;;;;;5033767;28;88052;-39
2023/05/08 00:03:42;;;;;;;;;;;18.10;59.00;;;;;;5032773;28;88074;-39
2023/05/08 00:06:07;;;;;;;;;;;18.10;59.10;;;;;;5031586;28;87956;-39
2023/05/08 00:08:33;;;;;;;;;;;18.10;59.20;;;;;;5033875;28;87613;-39
2023/05/08 00:10:58;;;;;;;;;;;18.10;59.20;;;;;;5033763;28;88017;-38
2023/05/08 00:13:24;;;;;;;;;;;18.10;59.10;;;;;;5032222;28;87187;-39
2023/05/08 00:15:49;;;;;;;;;;;18.00;59.20;;;;;;5032874;27;88658;-39
2023/05/08 00:18:15;;;;;;;;;;;18.10;59.10;;;;;;5036950;28;87309;-39
2023/05/08 00:20:41;;;;;;;;;;;18.00;59.00;;;;;;5032402;28;87398;-39
2023/05/08 00:23:06;;;;;;;;;;;18.10;59.10;;;;;;5032623;28;87015;-39
2023/05/08 00:25:32;;;;;;;;;;;18.00;59.10;;;;;;5033845;28;87150;-39
2023/05/08 00:27:58;;;;;;;;;;;18.00;59.00;;;;;;5032780;28;87543;-39
2023/05/08 00:30:23;;;;;;;;;;;18.00;59.00;;;;;;5030155;28;89864;-38
2023/05/08 00:32:49;;;;;;;;;;;18.00;59.00;;;;;;5031326;28;87269;-38
2023/05/08 00:35:14;;;;;;;;;;;17.90;59.10;;;;;;5032701;28;87432;-38
2023/05/08 00:37:40;;;;;;;;;;;17.90;59.10;;;;;;5033510;28;88339;-39
2023/05/08 00:40:07;;;;;;;;;;;17.90;59.20;;;;;;5035607;28;86967;-39
2023/05/08 00:42:33;;;;;;;;;;;17.90;59.20;;;;;;5031317;28;87860;-38
2023/05/08 00:44:58;;;;;;;;;;;17.90;59.20;;;;;;5033703;28;87104;-39
2023/05/08 00:47:23;;;;;;;;;;;17.90;59.20;;;;;;5033334;28;87552;-39
2023/05/08 00:49:49;;;;;;;;;;;17.80;59.10;;;;;;5033981;28;87973;-38
2023/05/08 00:52:15;;;;;;;;;;;17.80;59.10;;;;;;5032169;28;87137;-39
2023/05/08 00:54:41;;;;;;;;;;;17.80;59.20;;;;;;5030821;27;88067;-38
2023/05/08 00:57:06;;;;;;;;;;;17.80;59.30;;;;;;5027674;28;88127;-39
2023/05/08 00:59:32;;;;;;;;;;;17.80;59.30;;;;;;5032151;28;87133;-39
2023/05/08 01:01:59;;;;;;;;;;;17.70;59.20;;;;;;5035998;28;87922;-39
2023/05/08 01:04:25;;;;;;;;;;;17.70;59.30;;;;;;5031372;28;87116;-39
2023/05/08 01:06:51;;;;;;;;;;;17.70;59.30;;;;;;5031276;27;87498;-39
2023/05/08 01:09:16;;;;;;;;;;;17.70;59.20;;;;;;5032036;28;89877;-39
2023/05/08 01:12:02;;;;;;;;;;;17.70;59.30;;;;;;5033330;28;86174;-39
2023/05/08 01:14:34;;;;;;;;;;;17.60;59.20;;;;;;5032027;28;86779;-39
2023/05/08 01:17:14;;;;;;;;;;;17.60;59.20;;;;;;5028888;28;87976;-39
2023/05/08 01:19:55;;;;;;;;;;;17.60;59.30;;;;;;5027921;28;88047;-39
2023/05/08 01:22:30;;;;;;;;;;;17.60;59.30;;;;;;5030563;28;88761;-39
2023/05/08 01:25:04;;;;;;;;;;;17.60;59.30;;;;;;5030939;28;87192;-39
2023/05/08 01:27:30;;;;;;;;;;;17.60;59.30;;;;;;5031223;27;87911;-39
2023/05/08 01:30:14;;;;;;;;;;;17.60;59.30;;;;;;5032815;28;89578;-39
2023/05/08 01:32:42;;;;;;;;;;;17.50;59.30;;;;;;5027203;28;87195;-39
2023/05/08 01:35:07;;;;;;;;;;;17.50;59.40;;;;;;5031384;27;88754;-39
2023/05/08 01:37:39;;;;;;;;;;;17.50;59.30;;;;;;5033025;28;87701;-39
2023/05/08 01:40:10;;;;;;;;;;;17.50;59.30;;;;;;5032592;28;87131;-39
2023/05/08 01:42:47;;;;;;;;;;;17.50;59.30;;;;;;5027461;28;87456;-38
2023/05/08 01:45:18;;;;;;;;;;;17.50;59.30;;;;;;5032514;28;89016;-39
2023/05/08 01:47:47;;;;;;;;;;;17.40;59.20;;;;;;5031343;28;88523;-39
2023/05/08 01:50:18;;;;;;;;;;;17.50;59.30;;;;;;5032597;28;88107;-39
2023/05/08 01:52:57;;;;;;;;;;;17.40;59.30;;;;;;5032764;28;87176;-39
2023/05/08 01:55:29;;;;;;;;;;;17.40;59.40;;;;;;5030720;28;87384;-39
2023/05/08 01:57:56;;;;;;;;;;;17.40;59.30;;;;;;5026948;28;89603;-39
2023/05/08 02:00:22;;;;;;;;;;;17.40;59.40;;;;;;5030769;28;87007;-39
2023/05/08 02:02:49;;;;;;;;;;;17.40;59.20;;;;;;5033220;28;87884;-39
2023/05/08 02:05:15;;;;;;;;;;;17.40;59.40;;;;;;5031606;28;87958;-39
2023/05/08 02:07:42;;;;;;;;;;;17.30;59.20;;;;;;5033453;28;87479;-39
2023/05/08 02:10:08;;;;;;;;;;;17.30;59.20;;;;;;5030795;28;89074;-39
2023/05/08 02:12:36;;;;;;;;;;;17.30;59.40;;;;;;5032799;28;87002;-39
2023/05/08 02:15:02;;;;;;;;;;;17.30;59.30;;;;;;5031057;28;87696;-39
2023/05/08 02:17:28;;;;;;;;;;;17.20;59.30;;;;;;5030110;28;89712;-39
2023/05/08 02:19:55;;;;;;;;;;;17.30;59.30;;;;;;5033696;27;87458;-39
2023/05/08 02:22:22;;;;;;;;;;;17.20;59.30;;;;;;5035484;28;87356;-39
2023/05/08 02:24:52;;;;;;;;;;;17.20;59.40;;;;;;5033538;28;87217;-39
2023/05/08 02:27:18;;;;;;;;;;;17.20;59.40;;;;;;5035026;28;86314;-39
2023/05/08 02:29:44;;;;;;;;;;;17.20;59.30;;;;;;5038455;28;87045;-39
2023/05/08 02:32:10;;;;;;;;;;;17.20;59.40;;;;;;5033968;28;87286;-39
2023/05/08 02:34:36;;;;;;;;;;;17.20;59.30;;;;;;5033201;28;88070;-39
2023/05/08 02:37:02;;;;;;;;;;;17.20;59.40;;;;;;5035630;28;88076;-38
2023/05/08 02:39:29;;;;;;;;;;;17.20;59.40;;;;;;5035258;28;87099;-39
2023/05/08 02:41:55;;;;;;;;;;;17.20;59.40;;;;;;5033293;27;88711;-39
2023/05/08 02:44:20;;;;;;;;;;;17.20;59.30;;;;;;5034624;28;87926;-39
2023/05/08 02:46:49;;;;;;;;;;;17.10;59.20;;;;;;5035730;28;87144;-39
2023/05/08 02:49:14;;;;;;;;;;;17.10;59.30;;;;;;5033933;28;87365;-39
2023/05/08 02:51:49;;;;;;;;;;;17.10;59.90;;;;;;5036955;28;86362;-39
2023/05/08 02:54:20;;;;;;;;;;;17.10;59.30;;;;;;5031789;28;88057;-39
2023/05/08 02:56:52;;;;;;;;;;;17.00;59.30;;;;;;5032857;28;88606;-39
2023/05/08 02:59:21;;;;;;;;;;;17.00;59.30;;;;;;5033375;28;87851;-39
2023/05/08 03:01:46;;;;;;;;;;;17.00;59.40;;;;;;5035441;28;88113;-39
2023/05/08 03:04:14;;;;;;;;;;;17.00;59.30;;;;;;5033834;28;88162;-39
2023/05/08 03:06:41;;;;;;;;;;;17.00;59.30;;;;;;5033162;28;87741;-39
2023/05/08 03:09:11;;;;;;;;;;;17.00;59.30;;;;;;5034347;27;87282;-39
2023/05/08 03:11:39;;;;;;;;;;;17.00;59.30;;;;;;5034640;28;89191;-39
2023/05/08 03:14:08;;;;;;;;;;;16.90;59.30;;;;;;5037183;28;87117;-39
2023/05/08 03:16:35;;;;;;;;;;;16.90;59.40;;;;;;5033168;28;87215;-39
2023/05/08 03:19:04;;;;;;;;;;;16.90;59.40;;;;;;5034199;28;87098;-39
2023/05/08 03:21:30;;;;;;;;;;;16.90;59.40;;;;;;5035108;28;87082;-39
2023/05/08 03:23:57;;;;;;;;;;;16.90;59.40;;;;;;5032588;28;90117;-39
2023/05/08 03:26:23;;;;;;;;;;;16.80;59.50;;;;;;5032399;28;87209;-39
2023/05/08 03:28:49;;;;;;;;;;;16.80;59.30;;;;;;5034463;27;87419;-39
2023/05/08 03:31:20;;;;;;;;;;;16.80;59.40;;;;;;5032795;28;88442;-39
2023/05/08 03:33:47;;;;;;;;;;;16.80;59.40;;;;;;5031801;28;87173;-39
2023/05/08 03:36:13;;;;;;;;;;;16.80;59.50;;;;;;5031907;28;88230;-39
2023/05/08 03:38:38;;;;;;;;;;;16.80;59.50;;;;;;5034432;28;87190;-39
2023/05/08 03:41:05;;;;;;;;;;;16.80;59.40;;;;;;5033592;28;88061;-39
2023/05/08 03:43:31;;;;;;;;;;;16.80;60.00;;;;;;5031668;28;88139;-39
2023/05/08 03:45:57;;;;;;;;;;;16.80;59.50;;;;;;5033759;28;87193;-39
2023/05/08 03:48:23;;;;;;;;;;;16.80;59.40;;;;;;5033157;28;88310;-39
2023/05/08 03:50:49;;;;;;;;;;;16.70;59.40;;;;;;5031496;28;88178;-39
2023/05/08 03:53:15;;;;;;;;;;;16.70;59.40;;;;;;5032614;28;87142;-39
2023/05/08 03:55:40;;;;;;;;;;;16.70;59.50;;;;;;5036594;28;87407;-38
2023/05/08 03:58:06;;;;;;;;;;;16.70;59.40;;;;;;5032071;28;87130;-39
2023/05/08 04:00:48;;;;;;;;;;;16.70;59.50;;;;;;5031836;28;87042;-39
2023/05/08 04:03:14;;;;;;;;;;;16.70;59.50;;;;;;5031433;28;88085;-39
2023/05/08 04:05:49;;;;;;;;;;;16.60;59.50;;;;;;5031238;28;86373;-38
2023/05/08 04:08:18;;;;;;;;;;;16.60;59.60;;;;;;5030738;27;88173;-39
2023/05/08 04:10:54;;;;;;;;;;;16.60;59.40;;;;;;5032155;28;88565;-39
2023/05/08 04:13:24;;;;;;;;;;;16.60;59.50;;;;;;5032330;28;88350;-39
2023/05/08 04:15:51;;;;;;;;;;;16.60;59.40;;;;;;5032964;28;88355;-39
2023/05/08 04:18:17;;;;;;;;;;;16.60;59.50;;;;;;5033179;28;89400;-39
2023/05/08 04:20:45;;;;;;;;;;;16.60;59.50;;;;;;5031676;27;87332;-38
2023/05/08 04:23:13;;;;;;;;;;;16.60;59.60;;;;;;5032237;28;88021;-39
2023/05/08 04:25:39;;;;;;;;;;;16.50;59.60;;;;;;5032037;28;87710;-39
2023/05/08 04:28:05;;;;;;;;;;;16.50;59.50;;;;;;5031367;27;88577;-39
2023/05/08 04:30:30;;;;;;;;;;;16.50;59.60;;;;;;5032897;28;87083;-39
2023/05/08 04:32:56;;;;;;;;;;;16.50;59.60;;;;;;5032711;28;87178;-39
2023/05/08 04:35:22;;;;;;;;;;;16.60;59.50;;;;;;5030534;28;87389;-39
2023/05/08 04:37:48;;;;;;;;;;;16.50;59.50;;;;;;5030260;28;88956;-39
2023/05/08 04:40:13;;;;;;;;;;;16.50;59.60;;;;;;5035069;28;87126;-39
2023/05/08 04:42:42;;;;;;;;;;;16.50;59.70;;;;;;5029485;28;89275;-39
2023/05/08 04:45:08;;;;;;;;;;;16.50;59.60;;;;;;5028986;28;87074;-39
2023/05/08 04:47:34;;;;;;;;;;;16.40;59.70;;;;;;5026388;28;87497;-39
2023/05/08 04:49:59;;;;;;;;;;;16.50;59.70;;;;;;5029475;28;87134;-39
2023/05/08 04:52:25;;;;;;;;;;;16.40;59.70;;;;;;5031934;28;87050;-39
2023/05/08 04:54:50;;;;;;;;;;;16.40;59.70;;;;;;5030941;28;87484;-39
2023/05/08 04:57:16;;;;;;;;;;;16.40;59.60;;;;;;5029062;28;88017;-39
2023/05/08 04:59:41;;;;;;;;;;;16.50;59.60;;;;;;5032180;28;87517;-39
2023/05/08 05:02:07;;;;;;;;;;;16.40;59.60;;;;;;5033603;28;88138;-39
2023/05/08 05:04:34;;;;;;;;;;;16.40;59.60;;;;;;5028829;28;87033;-39
2023/05/08 05:07:00;;;;;;;;;;;16.40;59.60;;;;;;5030812;28;88755;-39
2023/05/08 05:09:25;;;;;;;;;;;16.50;59.70;;;;;;5030968;28;88999;-39
2023/05/08 05:11:51;;;;;;;;;;;16.40;59.70;;;;;;5029406;28;87380;-39
2023/05/08 05:14:16;;;;;;;;;;;16.40;59.80;;;;;;5030045;27;89005;-39
2023/05/08 05:16:42;;;;;;;;;;;16.40;60.30;;;;;;5031305;28;88047;-39
2023/05/08 05:19:07;;;;;;;;;;;16.40;59.80;;;;;;5030637;28;86365;-39
2023/05/08 05:21:33;;;;;;;;;;;16.40;59.80;;;;;;5030538;28;87130;-39
2023/05/08 05:23:58;;;;;;;;;;;16.40;59.90;;;;;;5035309;28;87371;-39
2023/05/08 05:26:24;;;;;;;;;;;16.40;59.90;;;;;;5030834;28;88107;-39
2023/05/08 05:28:49;;;;;;;;;;;16.40;60.00;;;;;;5029266;28;89601;-39
2023/05/08 05:31:15;;;;;;;;;;;16.40;59.90;;;;;;5031824;28;87083;-39
2023/05/08 05:33:41;;;;;;;;;;;16.40;59.90;;;;;;5031882;28;86960;-39
2023/05/08 05:36:06;;;;;;;;;;;16.40;60.00;;;;;;5029271;28;89644;-39
2023/05/08 05:38:32;;;;;;;;;;;16.40;59.90;;;;;;5030850;28;87648;-38
2023/05/08 05:40:58;;;;;;;;;;;16.40;60.00;;;;;;5032074;28;87724;-38
2023/05/08 05:43:23;;;;;;;;;;;16.40;60.00;;;;;;5033117;28;87142;-39
2023/05/08 05:45:49;;;;;;;;;;;16.40;60.00;;;;;;5030774;28;87151;-39
2023/05/08 05:48:14;;;;;;;;;;;16.40;60.00;;;;;;5031955;28;87962;-39
2023/05/08 05:50:40;;;;;;;;;;;16.40;60.00;;;;;;5030277;28;88056;-39
2023/05/08 05:53:05;;;;;;;;;;;16.40;60.00;;;;;;5030198;28;88455;-39
2023/05/08 05:55:31;;;;;;;;;;;16.40;60.10;;;;;;5027678;28;89236;-39
2023/05/08 05:57:56;;;;;;;;;;;16.40;60.10;;;;;;5034337;28;87081;-39
2023/05/08 06:00:22;;;;;;;;;;;16.40;60.10;;;;;;5036138;28;87436;-39
2023/05/08 06:02:47;;;;;;;;;;;16.40;60.10;;;;;;5033866;28;88096;-39
2023/05/08 06:05:14;;;;;;;;;;;16.40;60.20;;;;;;5036396;28;87551;-39
2023/05/08 06:07:39;;;;;;;;;;;16.40;60.30;;;;;;5035378;28;87756;-39
2023/05/08 06:10:05;;;;;;;;;;;16.40;60.30;;;;;;5034395;28;87399;-39
2023/05/08 06:12:31;;;;;;;;;;;16.40;60.30;;;;;;5033307;27;88890;-39
2023/05/08 06:14:56;;;;;;;;;;;16.40;60.30;;;;;;5034008;28;88926;-39
2023/05/08 06:17:22;;;;;;;;;;;16.40;60.30;;;;;;5035367;28;87098;-39
2023/05/08 06:19:52;;;;;;;;;;;16.40;60.40;;;;;;5032590;27;88983;-39
2023/05/08 06:22:18;;;;;;;;;;;16.40;60.40;;;;;;5033301;28;89303;-39
2023/05/08 06:24:44;;;;;;;;;;;16.40;60.40;;;;;;5035596;28;87193;-39
2023/05/08 06:27:10;;;;;;;;;;;16.40;60.40;;;;;;5036563;28;88882;-39
2023/05/08 06:29:35;;;;;;;;;;;16.50;60.50;;;;;;5033255;28;87064;-39
2023/05/08 06:32:01;;;;;;;;;;;16.50;60.60;;;;;;5035400;28;87677;-38
2023/05/08 06:34:26;;;;;;;;;;;16.40;60.50;;;;;;5034269;28;87681;-39
2023/05/08 06:36:52;;;;;;;;;;;16.40;60.50;;;;;;5032918;28;87255;-39
2023/05/08 06:39:17;;;;;;;;;;;16.40;60.60;;;;;;5033661;27;88002;-38
2023/05/08 06:41:45;;;;;;;;;;;16.40;60.60;;;;;;5034997;28;88214;-39
2023/05/08 06:44:11;;;;;;;;;;;16.40;60.60;;;;;;5033293;28;87090;-38
2023/05/08 06:46:37;;;;;;;;;;;16.40;60.60;;;;;;5033109;28;87405;-39
2023/05/08 06:49:02;;;;;;;;;;;16.40;60.70;;;;;;5037558;28;88057;-39
2023/05/08 06:51:27;;;;;;;;;;;16.40;60.60;;;;;;5034083;28;87533;-39
2023/05/08 06:53:53;;;;;;;;;;;16.40;60.70;;;;;;5032396;28;88058;-39
2023/05/08 06:56:19;;;;;;;;;;;16.50;60.70;;;;;;5035430;28;86428;-39
2023/05/08 06:58:44;;;;;;;;;;;16.50;60.70;;;;;;5034732;28;87055;-39
2023/05/08 07:01:10;;;;;;;;;;;16.50;60.70;;;;;;5032538;28;88186;-39
2023/05/08 07:03:36;;;;;;;;;;;16.50;60.70;;;;;;5032394;28;88180;-39
2023/05/08 07:06:01;;;;;;;;;;;16.50;60.70;;;;;;5034265;28;88150;-39
2023/05/08 07:08:28;;;;;;;;;;;16.50;60.70;;;;;;5031619;28;88141;-39
2023/05/08 07:10:54;;;;;;;;;;;16.50;60.70;;;;;;5035763;28;87067;-39
2023/05/08 07:13:20;;;;;;;;;;;16.50;60.80;;;;;;5034900;28;88062;-39
2023/05/08 07:15:46;;;;;;;;;;;16.50;60.80;;;;;;5033612;28;87100;-39
2023/05/08 07:18:12;;;;;;;;;;;16.50;60.90;;;;;;5035266;28;89317;-39
2023/05/08 07:20:37;;;;;;;;;;;16.50;61.20;;;;;;5032635;28;88846;-39
2023/05/08 07:23:03;;;;;;;;;;;16.50;60.90;;;;;;5033012;28;87094;-39
2023/05/08 07:25:28;;;;;;;;;;;16.50;61.00;;;;;;5034808;28;87014;-39
2023/05/08 07:27:54;;;;;;;;;;;16.50;61.00;;;;;;5032090;28;89210;-39
2023/05/08 07:30:20;;;;;;;;;;;16.50;61.00;;;;;;5032168;28;87103;-38
2023/05/08 07:32:45;;;;;;;;;;;16.50;61.10;;;;;;5036801;28;88763;-39
2023/05/08 07:35:11;;;;;;;;;;;16.50;61.10;;;;;;5033548;28;87216;-39
2023/05/08 07:37:37;;;;;;;;;;;16.50;61.10;;;;;;5032218;27;87502;-38
2023/05/08 07:40:03;;;;;;;;;;;16.50;61.10;;;;;;5033293;28;87607;-38
2023/05/08 07:42:29;;;;;;;;;;;16.50;61.10;;;;;;5034413;28;87185;-39
2023/05/08 07:44:54;;;;;;;;;;;16.50;61.20;;;;;;5030770;28;87426;-38
2023/05/08 07:47:20;;;;;;;;;;;16.50;62.70;;;;;;5032907;28;87380;-42
2023/05/08 07:49:45;;;;;;;;;;;16.60;63.80;;;;;;5031156;28;87083;-41
2023/05/08 07:52:11;;;;;;;;;;;16.70;64.00;;;;;;5035585;28;87974;-42
2023/05/08 07:54:36;;;;;;;;;;;16.90;65.00;;;;;;5034456;28;87101;-48
2023/05/08 07:57:02;;;;;;;;;;;16.90;65.90;;;;;;5028553;28;87410;-39
2023/05/08 07:59:27;;;;;;;;;;;17.00;65.90;;;;;;5032719;28;87900;-39
2023/05/08 08:01:53;;;;;;;;;;;16.90;66.60;;;;;;5034418;28;87092;-39
2023/05/08 08:04:18;;;;;;;;;;;16.80;66.80;;;;;;5032023;28;87822;-38
2023/05/08 08:06:44;;;;;;;;;;;16.90;66.50;;;;;;5031961;28;88147;-42
2023/05/08 08:09:10;;;;;;;;;;;16.90;66.20;;;;;;5033296;28;87078;-42
2023/05/08 08:11:35;;;;;;;;;;;16.90;67.00;;;;;;5033014;28;86928;-43
2023/05/08 08:14:01;;;;;;;;;;;17.10;66.90;;;;;;5033988;28;88358;-41
2023/05/08 08:16:26;;;;;;;;;;;17.20;66.70;;;;;;5032637;28;87974;-39
2023/05/08 08:18:51;;;;;;;;;;;17.20;67.70;;;;;;5032726;28;87577;-39
2023/05/08 08:21:17;;;;;;;;;;;17.30;67.30;;;;;;5031154;28;87161;-36
2023/05/08 08:23:43;;;;;;;;;;;17.30;66.60;;;;;;5032086;27;87241;-38
2023/05/08 08:26:09;;;;;;;;;;;17.20;66.60;;;;;;5033156;28;87925;-39
2023/05/08 08:28:34;;;;;;;;;;;17.30;66.40;;;;;;5031627;28;86986;-38
2023/05/08 08:31:00;;;;;;;;;;;17.20;65.80;;;;;;5032224;28;87527;-39
2023/05/08 08:33:28;;;;;;;;;;;17.30;65.50;;;;;;5034376;28;86907;-39
2023/05/08 08:35:54;;;;;;;;;;;17.20;65.40;;;;;;5035840;28;87145;-38
2023/05/08 08:38:19;;;;;;;;;;;17.20;65.30;;;;;;5031378;28;87877;-39
2023/05/08 08:40:45;;;;;;;;;;;17.20;65.40;;;;;;5032809;28;88071;-38
2023/05/08 08:43:10;;;;;;;;;;;17.20;66.20;;;;;;5033430;28;88418;-39
2023/05/08 08:45:36;;;;;;;;;;;17.20;65.90;;;;;;5031357;28;87942;-38
2023/05/08 08:48:02;;;;;;;;;;;17.20;65.80;;;;;;5032763;28;87054;-39
2023/05/08 08:50:32;;;;;;;;;;;17.20;65.20;;;;;;5032674;28;87719;-39
2023/05/08 08:53:10;;;;;;;;;;;17.20;64.90;;;;;;5030122;28;87247;-44
2023/05/08 08:55:38;;;;;;;;;;;17.20;64.80;;;;;;5026568;28;87131;-51
2023/05/08 08:58:16;;;;;;;;;;;17.10;66.00;;;;;;5033112;27;87508;-42
2023/05/08 09:00:41;;;;;;;;;;;17.10;66.10;;;;;;5028825;28;87121;-41
2023/05/08 09:03:07;;;;;;;;;;;17.10;66.90;;;;;;5029878;28;87353;-42
2023/05/08 09:05:33;;;;;;;;;;;17.10;68.00;;;;;;5029608;28;89548;-41
2023/05/08 09:07:59;;;;;;;;;;;17.20;69.50;;;;;;5032219;28;87096;-42
2023/05/08 09:10:25;;;;;;;;;;;17.30;68.10;;;;;;5027851;28;87362;-40
2023/05/08 09:12:50;;;;;;;;;;;17.20;68.40;;;;;;5031854;28;87444;-40
2023/05/08 09:15:16;;;;;;;;;;;17.20;68.80;;;;;;5033457;28;87090;-38
2023/05/08 09:17:41;;;;;;;;;;;17.30;68.90;;;;;;5031391;28;87498;-42
2023/05/08 09:20:08;;;;;;;;;;;17.30;69.00;;;;;;5033461;28;87282;-39
2023/05/08 09:22:36;;;;;;;;;;;17.40;68.90;;;;;;5027402;28;87576;-41
2023/05/08 09:25:02;;;;;;;;;;;17.40;68.20;;;;;;5031117;28;88055;-38
2023/05/08 09:27:28;;;;;;;;;;;17.40;68.40;;;;;;5032707;28;87312;-43
2023/05/08 09:30:07;;;;;;;;;;;17.40;69.00;;;;;;5030921;28;87963;-39
2023/05/08 09:32:33;;;;;;;;;;;17.50;68.10;;;;;;5027418;28;89321;-39
2023/05/08 09:34:59;;;;;;;;;;;17.50;68.10;;;;;;5030822;28;87119;-41
2023/05/08 09:37:26;;;;;;;;;;;17.50;68.50;;;;;;5027036;28;87292;-39
2023/05/08 09:39:52;;;;;;;;;;;17.50;68.40;;;;;;5030756;28;89165;-39
2023/05/08 09:42:17;;;;;;;;;;;17.50;68.10;;;;;;5036003;28;87474;-41
2023/05/08 09:44:44;;;;;;;;;;;17.50;68.30;;;;;;5031131;28;87980;-40
2023/05/08 09:47:11;;;;;;;;;;;17.50;68.10;;;;;;5030280;28;86381;-43
2023/05/08 09:49:39;;;;;;;;;;;17.50;68.60;;;;;;5031800;28;87568;-42
2023/05/08 09:52:04;;;;;;;;;;;17.60;68.40;;;;;;5031802;28;89404;-42
2023/05/08 09:54:30;;;;;;;;;;;17.50;68.40;;;;;;5030143;28;88108;-43
2023/05/08 09:56:55;;;;;;;;;;;17.50;68.50;;;;;;5031393;28;88984;-46
2023/05/08 09:59:25;;;;;;;;;;;17.60;68.10;;;;;;5032426;28;87362;-38
2023/05/08 10:01:51;;;;;;;;;;;17.60;67.70;;;;;;5034610;28;88081;-40
2023/05/08 10:04:17;;;;;;;;;;;17.70;67.90;;;;;;5029029;28;89071;-43
2023/05/08 10:06:42;;;;;;;;;;;17.70;67.80;;;;;;5032213;28;87590;-42
2023/05/08 10:09:14;;;;;;;;;;;17.70;67.90;;;;;;5032031;28;87426;-41
2023/05/08 10:11:40;;;;;;;;;;;17.60;67.50;;;;;;5027365;28;88765;-41
2023/05/08 10:14:06;;;;;;;;;;;17.70;67.70;;;;;;5030141;28;87406;-40
2023/05/08 10:16:37;;;;;;;;;;;17.60;67.60;;;;;;5031515;28;88680;-46
2023/05/08 10:19:05;;;;;;;;;;;17.80;67.20;;;;;;5030534;28;88926;-39
2023/05/08 10:21:34;;;;;;;;;;;17.70;67.60;;;;;;5025817;28;87138;-40
2023/05/08 10:24:03;;;;;;;;;;;17.70;67.80;;;;;;5032874;27;88458;-39
2023/05/08 10:26:30;;;;;;;;;;;17.70;67.20;;;;;;5023786;28;87290;-37
2023/05/08 10:28:57;;;;;;;;;;;17.80;67.20;;;;;;5030805;28;88895;-39
2023/05/08 10:31:30;;;;;;;;;;;17.80;66.10;;;;;;5028910;28;87956;-44
2023/05/08 10:33:56;;;;;;;;;;;17.80;65.20;;;;;;5029496;28;87399;-36
2023/05/08 10:36:25;;;;;;;;;;;17.80;65.10;;;;;;5032351;28;88582;-38
2023/05/08 10:38:51;;;;;;;;;;;17.80;66.60;;;;;;5031188;28;87153;-41
2023/05/08 10:41:17;;;;;;;;;;;17.80;67.10;;;;;;5029113;27;87180;-38
2023/05/08 10:43:43;;;;;;;;;;;17.90;67.00;;;;;;5032904;27;87996;-38
2023/05/08 10:46:32;;;;;;;;;;;17.90;66.50;;;;;;5037838;28;89277;-41
2023/05/08 10:49:00;;;;;;;;;;;17.90;65.90;;;;;;5032128;28;87463;-41
2023/05/08 10:51:33;;;;;;;;;;;17.90;65.10;;;;;;5034544;28;88403;-42
2023/05/08 10:54:04;;;;;;;;;;;17.90;64.60;;;;;;5028449;28;86977;-45
2023/05/08 10:56:29;;;;;;;;;;;18.00;64.30;;;;;;5035679;28;88912;-41
2023/05/08 10:58:56;;;;;;;;;;;17.90;64.10;;;;;;5033166;28;88175;-41
2023/05/08 11:01:22;;;;;;;;;;;18.00;64.20;;;;;;5034250;28;86325;-42
2023/05/08 11:03:49;;;;;;;;;;;18.00;64.10;;;;;;5035164;28;86987;-41
2023/05/08 11:06:15;;;;;;;;;;;18.00;64.00;;;;;;5033773;28;89708;-40
2023/05/08 11:08:48;;;;;;;;;;;18.00;64.20;;;;;;5035192;28;88066;-41
2023/05/08 11:11:22;;;;;;;;;;;18.00;64.30;;;;;;5033381;28;88064;-41
2023/05/08 11:14:14;;;;;;;;;;;18.00;64.40;;;;;;5030436;28;87069;-41
2023/05/08 11:16:55;;;;;;;;;;;17.90;64.40;;;;;;5031542;28;88817;-41
2023/05/08 11:19:21;;;;;;;;;;;17.90;64.60;;;;;;5032953;28;87947;-41
2023/05/08 11:22:06;;;;;;;;;;;17.90;64.60;;;;;;5031454;28;87379;-41
2023/05/08 11:24:37;;;;;;;;;;;17.90;64.60;;;;;;5029422;28;87440;-41
2023/05/08 11:27:03;;;;;;;;;;;17.90;64.70;;;;;;5032808;28;87064;-41
2023/05/08 11:29:29;;;;;;;;;;;17.90;64.70;;;;;;5028831;28;87116;-41
2023/05/08 11:31:54;;;;;;;;;;;17.90;64.80;;;;;;5036316;28;87429;-41
2023/05/08 11:34:43;;;;;;;;;;;17.90;64.80;;;;;;5034499;28;88069;-41
2023/05/08 11:37:19;;;;;;;;;;;17.90;64.70;;;;;;5028308;28;90059;-41
2023/05/08 11:39:44;;;;;;;;;;;17.90;64.70;;;;;;5032264;28;87981;-41
2023/05/08 11:42:25;;;;;;;;;;;17.90;64.80;;;;;;5034400;28;87078;-41
2023/05/08 11:45:02;;;;;;;;;;;17.90;64.80;;;;;;5027150;28;90648;-41
2023/05/08 11:47:33;;;;;;;;;;;17.90;64.90;;;;;;5031849;28;88233;-41
2023/05/08 11:49:58;;;;;;;;;;;17.90;64.80;;;;;;5032394;28;86999;-41
2023/05/08 11:52:24;;;;;;;;;;;17.90;64.80;;;;;;5037154;28;87535;-41
2023/05/08 11:54:49;;;;;;;;;;;17.90;64.80;;;;;;5033552;28;87081;-41
2023/05/08 11:57:16;;;;;;;;;;;17.90;64.70;;;;;;5032590;28;87043;-41
2023/05/08 11:59:42;;;;;;;;;;;17.90;64.90;;;;;;5033157;28;88624;-42
2023/05/08 12:02:07;;;;;;;;;;;17.90;64.90;;;;;;5034327;28;87006;-41
2023/05/08 12:04:41;;;;;;;;;;;17.90;65.00;;;;;;5031779;28;87537;-41
2023/05/08 12:07:07;;;;;;;;;;;17.90;65.00;;;;;;5031945;28;88659;-41
2023/05/08 12:09:32;;;;;;;;;;;17.90;65.10;;;;;;5028166;28;86986;-40
2023/05/08 12:11:58;;;;;;;;;;;17.90;65.10;;;;;;5033122;27;87185;-41
2023/05/08 12:14:23;;;;;;;;;;;17.90;65.00;;;;;;5036702;28;89288;-41
2023/05/08 12:16:50;;;;;;;;;;;17.90;65.00;;;;;;5033303;28;87408;-41
2023/05/08 12:19:15;;;;;;;;;;;17.90;64.90;;;;;;5031579;28;89298;-41
2023/05/08 12:21:47;;;;;;;;;;;17.90;64.90;;;;;;5033916;28;87126;-41
2023/05/08 12:24:15;;;;;;;;;;;17.90;64.70;;;;;;5033649;28;87966;-41
2023/05/08 12:26:40;;;;;;;;;;;18.00;64.70;;;;;;5028414;28;88055;-41
2023/05/08 12:29:07;;;;;;;;;;;18.00;64.80;;;;;;5032291;28;87108;-41
2023/05/08 12:31:36;;;;;;;;;;;18.00;64.70;;;;;;5033871;28;88743;-41
2023/05/08 12:34:02;;;;;;;;;;;18.00;64.80;;;;;;5032529;28;87501;-41
2023/05/08 12:36:27;;;;;;;;;;;18.10;64.80;;;;;;5034754;28;87970;-41
2023/05/08 12:39:07;;;;;;;;;;;18.10;64.80;;;;;;5032481;28;88586;-41
2023/05/08 12:41:32;;;;;;;;;;;18.10;64.90;;;;;;5028813;28;86366;-41
2023/05/08 12:43:58;;;;;;;;;;;18.10;64.80;;;;;;5032048;28;87151;-41
2023/05/08 12:46:24;;;;;;;;;;;18.10;64.80;;;;;;5032711;28;89254;-41
2023/05/08 12:48:49;;;;;;;;;;;18.10;64.90;;;;;;5031804;28;88081;-41
2023/05/08 12:51:15;;;;;;;;;;;18.10;65.00;;;;;;5031617;28;88409;-42
2023/05/08 12:53:40;;;;;;;;;;;18.10;65.50;;;;;;5033180;28;88053;-41
2023/05/08 12:56:06;;;;;;;;;;;18.10;64.90;;;;;;5032558;28;87134;-41
2023/05/08 12:58:32;;;;;;;;;;;18.10;64.90;;;;;;5034040;28;87412;-41
2023/05/08 13:01:06;;;;;;;;;;;18.10;65.00;;;;;;5032832;28;87062;-41
2023/05/08 13:03:32;;;;;;;;;;;18.00;65.00;;;;;;5033257;28;88841;-41
2023/05/08 13:05:58;;;;;;;;;;;18.10;65.00;;;;;;5032036;28;87299;-41
2023/05/08 13:08:37;;;;;;;;;;;18.10;65.00;;;;;;5031433;28;87071;-41
2023/05/08 13:11:04;;;;;;;;;;;18.10;65.10;;;;;;5031015;28;87448;-41
2023/05/08 13:13:31;;;;;;;;;;;18.00;65.00;;;;;;5030716;28;88915;-41
2023/05/08 13:15:57;;;;;;;;;;;18.00;65.00;;;;;;5031239;28;87074;-41
2023/05/08 13:18:24;;;;;;;;;;;18.00;65.10;;;;;;5033644;28;87158;-41
2023/05/08 13:20:49;;;;;;;;;;;18.00;65.60;;;;;;5035065;28;89230;-41
2023/05/08 13:23:15;;;;;;;;;;;18.00;65.10;;;;;;5031318;28;87293;-41
2023/05/08 13:25:41;;;;;;;;;;;18.00;64.90;;;;;;5032679;28;87956;-41
2023/05/08 13:28:07;;;;;;;;;;;18.00;65.00;;;;;;5032993;28;87512;-41
2023/05/08 13:30:33;;;;;;;;;;;18.00;65.00;;;;;;5031130;27;88660;-41
2023/05/08 13:32:59;;;;;;;;;;;18.00;65.00;;;;;;5031279;28;88097;-41
2023/05/08 13:35:24;;;;;;;;;;;18.00;65.00;;;;;;5033492;28;87143;-41
2023/05/08 13:37:50;;;;;;;;;;;18.00;65.00;;;;;;5031319;28;88355;-42
2023/05/08 13:40:16;;;;;;;;;;;18.00;64.90;;;;;;5030777;28;87919;-41
2023/05/08 13:42:41;;;;;;;;;;;18.00;65.90;;;;;;5036349;28;87211;-41
2023/05/08 13:45:09;;;;;;;;;;;18.00;65.10;;;;;;5031583;28;87879;-41
2023/05/08 13:47:35;;;;;;;;;;;18.00;65.00;;;;;;5030550;28;87241;-41
2023/05/08 13:50:01;;;;;;;;;;;18.00;65.00;;;;;;5032087;27;87384;-41
2023/05/08 13:52:29;;;;;;;;;;;18.00;65.00;;;;;;5032997;28;87157;-41
2023/05/08 13:54:55;;;;;;;;;;;18.00;65.10;;;;;;5028105;28;86335;-41
2023/05/08 13:57:20;;;;;;;;;;;18.00;65.10;;;;;;5031013;27;87076;-41
2023/05/08 13:59:46;;;;;;;;;;;18.00;65.10;;;;;;5032568;28;88001;-42
2023/05/08 14:02:12;;;;;;;;;;;18.00;65.10;;;;;;5034093;28;88327;-41
2023/05/08 14:04:37;;;;;;;;;;;18.00;65.20;;;;;;5029440;28;89390;-42
2023/05/08 14:07:03;;;;;;;;;;;18.00;65.10;;;;;;5030959;28;87195;-41
2023/05/08 14:09:28;;;;;;;;;;;18.00;65.10;;;;;;5032266;28;87063;-41
2023/05/08 14:11:54;;;;;;;;;;;18.00;65.20;;;;;;5030212;28;88157;-41
2023/05/08 14:14:19;;;;;;;;;;;18.00;65.20;;;;;;5031734;28;87097;-41
2023/05/08 14:16:45;;;;;;;;;;;18.00;65.10;;;;;;5035010;28;87577;-41